Main page
METAR-TAF:

Airports :

London-Luton, England

Luton Airport

latitude: 51-52N, longitude: 000-22W, elevation: 160 m

Current weather observation

The report was made 27 minutes ago, at 04:50 UTC
Wind 3 kt from the South
Temperature 9°C
Humidity 100%
Pressure 1021 hPa
Visibility 10 km or more

METAR: EGGW 260450Z AUTO 19003KT 9999 NCD 09/09 Q1021

Time: 06:17 (05:17 UTC)

Forecast

The report was made 1 hour and 25 minutes ago, at 03:52 UTC
Forecast valid from 26 at 03 UTC to 26 at 24 UTC
Wind 5 kt from the South
Visibility 10 km or more
Few clouds at a height of 3000 ft
Probability 30% :
Temporary
from 26 at 03 UTC to 26 at 06 UTC
Visibility: 9000 m
Temporary
from 26 at 06 UTC to 26 at 15 UTC
Visibility: 6000 m
rain showers

TAF: EGGW 260352Z 2603/2624 17005KT 9999 FEW030 PROB30 TEMPO 2603/2606 9000 TEMPO 2606/2615 6000 SHRA

METAR-TAF

Weather observations and forecasts of more than 4000 airports (METAR and TAF reports).

The available stations are represented by yellow and red dots on the map.

Hover mouse over dot to see the name of the station.

Then click to see weather observations and forecasts.

To change the map : click on the green buttons with a black cross to zoom in, on the green button with a dash to zoom out, or on the green arrows for adjacent maps.


METAR-TAF: